LFRS/NTE METAR and TAF weather

Enter ICAO airport designator
Station Type Date Time Source
LFRS METAR 2022/01/29 13:00 UTC NOAA

LFRS 291300Z AUTO 24005KT 210V270 9999 OVC009 09/07 Q1037 TEMPO 3000 BR BECMG BKN012 BKN016


Station Type Date Time Source
LFRS Decoded METAR 2022/01/29 13:00 UTC NOAA

Nantes, France (LFRS) 47-10N 001-36W 27M
Jan 29, 2022 - 08:00 AM EST / 2022.01.29 1300 UTC
Wind: from the WSW (240 degrees) at 6 MPH (5 KT) (direction variable):0
Visibility: greater than 7 mile(s):0
Sky conditions: overcast
Temperature: 48 F (9 C)
Dew Point: 44 F (7 C)
Relative Humidity: 87%
Pressure (altimeter): 30.62 in. Hg (1037 hPa)
ob: LFRS 291300Z AUTO 24005KT 210V270 9999 OVC009 09/07 Q1037 TEMPO 3000 BR BECMG BKN012 BKN016
cycle: 13

Station Type Date Time Source
LFRS TAF 2022/01/29 12:42 UTC NOAA

TAF LFRS 291100Z 2912/3018 VRB03KT 9999 BKN012 BKN016
TEMPO 2912/2914 3000 BR BKN005
TEMPO 2912/2914 BKN006
TEMPO 2918/3003 4000 BR
TEMPO 3003/3012 4000 -RA BKN012 PROB40
TEMPO 3008/3014 2000 -DZRA BKN004

Example: see airport list